sensor_id;sensor_type;location;lat;lon;timestamp;pressure;altitude;pressure_sealevel;temperature;humidity
21728;BME280;11026;50.560;17.852;2022-08-19T00:02:08;98847.19;;;25.08;69.38
21728;BME280;11026;50.560;17.852;2022-08-19T00:04:37;98851.56;;;25.17;69.32
21728;BME280;11026;50.560;17.852;2022-08-19T00:07:05;98852.28;;;25.03;69.89
21728;BME280;11026;50.560;17.852;2022-08-19T00:09:32;98841.31;;;24.96;69.94
21728;BME280;11026;50.560;17.852;2022-08-19T00:12:00;98838.44;;;24.98;70.03
21728;BME280;11026;50.560;17.852;2022-08-19T00:14:41;98843.00;;;24.97;70.15
21728;BME280;11026;50.560;17.852;2022-08-19T00:17:10;98840.97;;;24.99;70.33
21728;BME280;11026;50.560;17.852;2022-08-19T00:19:43;98837.94;;;24.94;70.28
21728;BME280;11026;50.560;17.852;2022-08-19T00:22:16;98832.22;;;24.89;70.70
21728;BME280;11026;50.560;17.852;2022-08-19T00:24:58;98833.09;;;24.82;71.37
21728;BME280;11026;50.560;17.852;2022-08-19T00:27:49;98829.41;;;24.74;71.54
21728;BME280;11026;50.560;17.852;2022-08-19T00:30:18;98829.94;;;24.70;71.66
21728;BME280;11026;50.560;17.852;2022-08-19T00:32:58;98821.19;;;24.60;71.94
21728;BME280;11026;50.560;17.852;2022-08-19T00:35:32;98813.25;;;24.58;72.33
21728;BME280;11026;50.560;17.852;2022-08-19T00:38:09;98812.94;;;24.53;72.41
21728;BME280;11026;50.560;17.852;2022-08-19T00:40:38;98806.19;;;24.49;72.49
21728;BME280;11026;50.560;17.852;2022-08-19T00:43:19;98802.97;;;24.53;72.29
21728;BME280;11026;50.560;17.852;2022-08-19T00:45:53;98797.75;;;24.52;72.68
21728;BME280;11026;50.560;17.852;2022-08-19T00:48:21;98795.06;;;24.44;73.06
21728;BME280;11026;50.560;17.852;2022-08-19T00:51:10;98782.75;;;24.25;73.58
21728;BME280;11026;50.560;17.852;2022-08-19T00:54:07;98787.31;;;24.24;73.59
21728;BME280;11026;50.560;17.852;2022-08-19T00:56:37;98788.34;;;24.07;74.72
21728;BME280;11026;50.560;17.852;2022-08-19T00:59:29;98786.00;;;24.04;74.96
21728;BME280;11026;50.560;17.852;2022-08-19T01:02:16;98790.06;;;23.84;75.72
21728;BME280;11026;50.560;17.852;2022-08-19T01:04:49;98779.97;;;23.77;76.00
21728;BME280;11026;50.560;17.852;2022-08-19T01:07:34;98784.84;;;23.74;76.35
21728;BME280;11026;50.560;17.852;2022-08-19T01:13:16;98783.31;;;23.79;76.07
21728;BME280;11026;50.560;17.852;2022-08-19T01:16:03;98785.53;;;23.76;76.60
21728;BME280;11026;50.560;17.852;2022-08-19T01:18:39;98776.25;;;23.70;76.92
21728;BME280;11026;50.560;17.852;2022-08-19T01:21:51;98775.59;;;23.68;77.17
21728;BME280;11026;50.560;17.852;2022-08-19T01:24:20;98772.19;;;23.66;76.88
21728;BME280;11026;50.560;17.852;2022-08-19T01:26:56;98775.19;;;23.63;77.16
21728;BME280;11026;50.560;17.852;2022-08-19T01:29:24;98773.00;;;23.59;77.22
21728;BME280;11026;50.560;17.852;2022-08-19T01:31:56;98767.09;;;23.63;77.28
21728;BME280;11026;50.560;17.852;2022-08-19T01:34:28;98769.28;;;23.60;77.11
21728;BME280;11026;50.560;17.852;2022-08-19T01:37:06;98776.72;;;23.49;77.64
21728;BME280;11026;50.560;17.852;2022-08-19T01:39:41;98775.88;;;23.49;77.86
21728;BME280;11026;50.560;17.852;2022-08-19T01:42:15;98784.63;;;23.43;78.59
21728;BME280;11026;50.560;17.852;2022-08-19T01:44:43;98780.75;;;23.29;78.86
21728;BME280;11026;50.560;17.852;2022-08-19T01:47:12;98779.03;;;23.20;79.69
21728;BME280;11026;50.560;17.852;2022-08-19T01:49:43;98778.19;;;23.11;80.04
21728;BME280;11026;50.560;17.852;2022-08-19T01:52:41;98774.00;;;23.09;80.15
21728;BME280;11026;50.560;17.852;2022-08-19T01:55:13;98778.19;;;23.11;80.39
21728;BME280;11026;50.560;17.852;2022-08-19T01:57:44;98770.44;;;23.16;80.69
21728;BME280;11026;50.560;17.852;2022-08-19T02:00:21;98775.50;;;23.11;80.66
21728;BME280;11026;50.560;17.852;2022-08-19T02:02:55;98779.72;;;23.05;81.02
21728;BME280;11026;50.560;17.852;2022-08-19T02:05:24;98776.19;;;23.13;80.83
21728;BME280;11026;50.560;17.852;2022-08-19T02:07:52;98780.22;;;23.09;81.04
21728;BME280;11026;50.560;17.852;2022-08-19T02:10:21;98777.19;;;23.12;81.14
21728;BME280;11026;50.560;17.852;2022-08-19T02:12:55;98772.78;;;23.11;81.22
21728;BME280;11026;50.560;17.852;2022-08-19T02:15:24;98766.38;;;23.04;81.31
21728;BME280;11026;50.560;17.852;2022-08-19T02:17:52;98763.53;;;23.05;81.38
21728;BME280;11026;50.560;17.852;2022-08-19T02:20:31;98768.06;;;22.97;81.46
21728;BME280;11026;50.560;17.852;2022-08-19T02:23:00;98761.66;;;22.98;81.54
21728;BME280;11026;50.560;17.852;2022-08-19T02:25:29;98765.38;;;22.97;81.67
21728;BME280;11026;50.560;17.852;2022-08-19T02:27:57;98755.41;;;22.97;81.55
21728;BME280;11026;50.560;17.852;2022-08-19T02:30:26;98749.19;;;22.97;81.66
21728;BME280;11026;50.560;17.852;2022-08-19T02:32:59;98737.34;;;22.90;82.25
21728;BME280;11026;50.560;17.852;2022-08-19T02:35:43;98734.63;;;22.90;82.01
21728;BME280;11026;50.560;17.852;2022-08-19T02:41:33;98743.53;;;22.74;82.87
21728;BME280;11026;50.560;17.852;2022-08-19T02:44:19;98746.88;;;22.76;83.01
21728;BME280;11026;50.560;17.852;2022-08-19T02:46:58;98740.13;;;22.64;83.94
21728;BME280;11026;50.560;17.852;2022-08-19T02:49:28;98734.59;;;22.65;83.84
21728;BME280;11026;50.560;17.852;2022-08-19T02:52:00;98744.50;;;22.65;83.60
21728;BME280;11026;50.560;17.852;2022-08-19T02:54:28;98740.59;;;22.51;84.69
21728;BME280;11026;50.560;17.852;2022-08-19T02:57:05;98724.25;;;22.52;84.30
21728;BME280;11026;50.560;17.852;2022-08-19T02:59:39;98731.34;;;22.53;84.55
21728;BME280;11026;50.560;17.852;2022-08-19T03:02:07;98745.28;;;22.49;84.46
21728;BME280;11026;50.560;17.852;2022-08-19T03:04:35;98756.06;;;22.49;84.82
21728;BME280;11026;50.560;17.852;2022-08-19T03:07:03;98766.66;;;22.42;85.20
21728;BME280;11026;50.560;17.852;2022-08-19T03:09:37;98761.59;;;22.39;85.46
21728;BME280;11026;50.560;17.852;2022-08-19T03:12:05;98766.44;;;22.36;85.83
21728;BME280;11026;50.560;17.852;2022-08-19T03:14:35;98773.19;;;22.40;85.95
21728;BME280;11026;50.560;17.852;2022-08-19T03:17:05;98781.78;;;22.35;85.90
21728;BME280;11026;50.560;17.852;2022-08-19T03:19:37;98783.28;;;22.29;86.58
21728;BME280;11026;50.560;17.852;2022-08-19T03:22:12;98788.63;;;22.21;86.84
21728;BME280;11026;50.560;17.852;2022-08-19T03:24:40;98787.28;;;22.25;86.96
21728;BME280;11026;50.560;17.852;2022-08-19T03:27:08;98797.06;;;22.26;87.14
21728;BME280;11026;50.560;17.852;2022-08-19T03:29:39;98801.06;;;22.22;87.22
21728;BME280;11026;50.560;17.852;2022-08-19T03:32:10;98795.38;;;22.25;86.71
21728;BME280;11026;50.560;17.852;2022-08-19T03:35:05;98803.38;;;22.17;87.68
21728;BME280;11026;50.560;17.852;2022-08-19T03:37:34;98796.69;;;22.21;87.23
21728;BME280;11026;50.560;17.852;2022-08-19T03:40:03;98798.78;;;22.09;87.28
21728;BME280;11026;50.560;17.852;2022-08-19T03:42:31;98789.06;;;22.17;87.17
21728;BME280;11026;50.560;17.852;2022-08-19T03:45:17;98798.25;;;22.06;87.89
21728;BME280;11026;50.560;17.852;2022-08-19T03:47:44;98798.59;;;22.11;87.92
21728;BME280;11026;50.560;17.852;2022-08-19T03:50:15;98799.75;;;22.08;88.03
21728;BME280;11026;50.560;17.852;2022-08-19T03:52:50;98794.78;;;22.14;87.68
21728;BME280;11026;50.560;17.852;2022-08-19T03:55:19;98791.16;;;22.05;87.92
21728;BME280;11026;50.560;17.852;2022-08-19T03:57:48;98797.91;;;22.09;87.95
21728;BME280;11026;50.560;17.852;2022-08-19T04:00:21;98798.78;;;22.09;88.19
21728;BME280;11026;50.560;17.852;2022-08-19T04:02:51;98817.28;;;22.13;88.08
21728;BME280;11026;50.560;17.852;2022-08-19T04:05:29;98824.69;;;22.10;88.32
21728;BME280;11026;50.560;17.852;2022-08-19T04:07:56;98823.41;;;22.15;88.16
21728;BME280;11026;50.560;17.852;2022-08-19T04:10:28;98813.22;;;22.26;87.75
21728;BME280;11026;50.560;17.852;2022-08-19T04:12:55;98817.09;;;22.32;87.48
21728;BME280;11026;50.560;17.852;2022-08-19T04:15:25;98812.59;;;22.41;86.67
21728;BME280;11026;50.560;17.852;2022-08-19T04:18:01;98819.72;;;22.42;86.63
21728;BME280;11026;50.560;17.852;2022-08-19T04:20:30;98818.69;;;22.43;86.61
21728;BME280;11026;50.560;17.852;2022-08-19T04:23:11;98827.50;;;22.53;86.18
21728;BME280;11026;50.560;17.852;2022-08-19T04:25:42;98825.00;;;22.59;85.47
21728;BME280;11026;50.560;17.852;2022-08-19T04:28:11;98825.88;;;22.68;85.27
21728;BME280;11026;50.560;17.852;2022-08-19T04:30:47;98821.47;;;22.59;85.39
21728;BME280;11026;50.560;17.852;2022-08-19T04:33:17;98820.84;;;22.65;85.07
21728;BME280;11026;50.560;17.852;2022-08-19T04:35:58;98824.91;;;22.69;85.02
21728;BME280;11026;50.560;17.852;2022-08-19T04:38:26;98819.66;;;22.68;85.11
21728;BME280;11026;50.560;17.852;2022-08-19T04:40:58;98818.31;;;22.72;85.09
21728;BME280;11026;50.560;17.852;2022-08-19T04:43:53;98821.84;;;22.72;85.27
21728;BME280;11026;50.560;17.852;2022-08-19T04:46:23;98827.63;;;22.77;84.76
21728;BME280;11026;50.560;17.852;2022-08-19T04:49:07;98824.94;;;22.77;84.99
21728;BME280;11026;50.560;17.852;2022-08-19T04:51:41;98819.53;;;22.77;85.06
21728;BME280;11026;50.560;17.852;2022-08-19T04:54:09;98816.16;;;22.75;85.28
21728;BME280;11026;50.560;17.852;2022-08-19T04:56:36;98809.91;;;22.75;85.23
21728;BME280;11026;50.560;17.852;2022-08-19T04:59:05;98807.38;;;22.73;85.14
21728;BME280;11026;50.560;17.852;2022-08-19T05:01:33;98815.31;;;22.75;85.32
21728;BME280;11026;50.560;17.852;2022-08-19T05:04:00;98816.34;;;22.82;85.29
21728;BME280;11026;50.560;17.852;2022-08-19T05:06:33;98819.38;;;22.87;85.09
21728;BME280;11026;50.560;17.852;2022-08-19T05:09:04;98820.47;;;22.94;84.94
21728;BME280;11026;50.560;17.852;2022-08-19T05:11:34;98818.28;;;22.98;84.67
21728;BME280;11026;50.560;17.852;2022-08-19T05:14:05;98816.59;;;22.97;84.62
21728;BME280;11026;50.560;17.852;2022-08-19T05:16:47;98808.53;;;22.97;84.58
21728;BME280;11026;50.560;17.852;2022-08-19T05:19:16;98809.91;;;23.09;84.79
21728;BME280;11026;50.560;17.852;2022-08-19T05:22:03;98799.97;;;23.18;84.39
21728;BME280;11026;50.560;17.852;2022-08-19T05:25:10;98801.84;;;23.25;83.87
21728;BME280;11026;50.560;17.852;2022-08-19T05:27:52;98810.59;;;23.27;83.64
21728;BME280;11026;50.560;17.852;2022-08-19T05:33:29;98796.44;;;23.25;84.09
21728;BME280;11026;50.560;17.852;2022-08-19T05:35:58;98812.63;;;23.25;83.71
21728;BME280;11026;50.560;17.852;2022-08-19T05:38:25;98805.38;;;23.34;83.46
21728;BME280;11026;50.560;17.852;2022-08-19T05:40:56;98811.81;;;23.41;83.65
21728;BME280;11026;50.560;17.852;2022-08-19T05:43:44;98826.81;;;23.44;83.20
21728;BME280;11026;50.560;17.852;2022-08-19T05:46:30;98821.59;;;23.50;82.78
21728;BME280;11026;50.560;17.852;2022-08-19T05:49:04;98822.81;;;23.64;82.26
21728;BME280;11026;50.560;17.852;2022-08-19T05:51:58;98823.50;;;23.74;81.56
21728;BME280;11026;50.560;17.852;2022-08-19T05:54:54;98819.78;;;23.92;81.17
21728;BME280;11026;50.560;17.852;2022-08-19T05:57:45;98828.53;;;24.02;80.35
21728;BME280;11026;50.560;17.852;2022-08-19T06:00:36;98830.72;;;24.15;80.19
21728;BME280;11026;50.560;17.852;2022-08-19T06:03:04;98833.91;;;24.18;79.49
21728;BME280;11026;50.560;17.852;2022-08-19T06:05:41;98838.31;;;24.27;80.05
21728;BME280;11026;50.560;17.852;2022-08-19T06:08:19;98838.31;;;24.27;78.77
21728;BME280;11026;50.560;17.852;2022-08-19T06:11:41;98837.28;;;24.28;79.07
21728;BME280;11026;50.560;17.852;2022-08-19T06:14:12;98842.00;;;24.35;78.09
21728;BME280;11026;50.560;17.852;2022-08-19T06:19:58;98847.41;;;24.59;77.63
21728;BME280;11026;50.560;17.852;2022-08-19T06:25:09;98853.03;;;24.89;74.70
21728;BME280;11026;50.560;17.852;2022-08-19T06:27:38;98854.66;;;24.98;75.14
21728;BME280;11026;50.560;17.852;2022-08-19T06:30:37;98849.19;;;25.14;74.42
21728;BME280;11026;50.560;17.852;2022-08-19T06:33:34;98856.44;;;25.22;73.60
21728;BME280;11026;50.560;17.852;2022-08-19T06:36:06;98860.81;;;25.31;72.98
21728;BME280;11026;50.560;17.852;2022-08-19T06:38:34;98866.97;;;25.48;71.71
21728;BME280;11026;50.560;17.852;2022-08-19T06:41:05;98871.63;;;25.62;71.43
21728;BME280;11026;50.560;17.852;2022-08-19T06:43:37;98876.75;;;25.80;70.78
21728;BME280;11026;50.560;17.852;2022-08-19T06:46:13;98877.84;;;25.94;68.45
21728;BME280;11026;50.560;17.852;2022-08-19T06:48:45;98886.91;;;26.01;67.60
21728;BME280;11026;50.560;17.852;2022-08-19T06:51:44;98884.59;;;26.13;67.69
21728;BME280;11026;50.560;17.852;2022-08-19T06:54:26;98898.19;;;26.28;67.10
21728;BME280;11026;50.560;17.852;2022-08-19T06:57:05;98893.94;;;26.33;65.66
21728;BME280;11026;50.560;17.852;2022-08-19T06:59:42;98900.94;;;26.42;64.91
21728;BME280;11026;50.560;17.852;2022-08-19T07:02:31;98895.66;;;26.49;65.17
21728;BME280;11026;50.560;17.852;2022-08-19T07:04:59;98899.78;;;26.60;65.23
21728;BME280;11026;50.560;17.852;2022-08-19T07:07:33;98910.91;;;26.80;64.94
21728;BME280;11026;50.560;17.852;2022-08-19T07:10:09;98916.81;;;26.83;64.55
21728;BME280;11026;50.560;17.852;2022-08-19T07:12:39;98912.22;;;26.84;62.93
21728;BME280;11026;50.560;17.852;2022-08-19T07:15:13;98913.28;;;26.97;62.74
21728;BME280;11026;50.560;17.852;2022-08-19T07:17:44;98909.22;;;27.08;63.61
21728;BME280;11026;50.560;17.852;2022-08-19T07:20:16;98920.19;;;27.00;61.94
21728;BME280;11026;50.560;17.852;2022-08-19T07:22:44;98922.06;;;27.00;62.46
21728;BME280;11026;50.560;17.852;2022-08-19T07:25:24;98918.50;;;26.99;60.77
21728;BME280;11026;50.560;17.852;2022-08-19T07:28:00;98915.06;;;27.05;59.54
21728;BME280;11026;50.560;17.852;2022-08-19T07:30:29;98927.22;;;27.24;60.51
21728;BME280;11026;50.560;17.852;2022-08-19T07:33:13;98927.66;;;27.42;61.39
21728;BME280;11026;50.560;17.852;2022-08-19T07:35:41;98928.28;;;27.59;59.40
21728;BME280;11026;50.560;17.852;2022-08-19T07:38:22;98930.78;;;27.76;60.19
21728;BME280;11026;50.560;17.852;2022-08-19T07:40:57;98930.94;;;28.10;57.43
21728;BME280;11026;50.560;17.852;2022-08-19T07:43:30;98936.66;;;28.37;57.00
21728;BME280;11026;50.560;17.852;2022-08-19T07:46:01;98930.66;;;28.27;56.67
21728;BME280;11026;50.560;17.852;2022-08-19T07:48:30;98931.31;;;28.29;55.23
21728;BME280;11026;50.560;17.852;2022-08-19T07:51:00;98923.41;;;28.55;55.28
21728;BME280;11026;50.560;17.852;2022-08-19T07:53:32;98923.19;;;28.85;56.15
21728;BME280;11026;50.560;17.852;2022-08-19T07:56:07;98933.91;;;28.93;55.61
21728;BME280;11026;50.560;17.852;2022-08-19T07:58:46;98927.28;;;29.02;54.04
21728;BME280;11026;50.560;17.852;2022-08-19T08:01:25;98926.84;;;29.40;55.99
21728;BME280;11026;50.560;17.852;2022-08-19T08:03:56;98936.19;;;29.65;53.47
21728;BME280;11026;50.560;17.852;2022-08-19T08:06:50;98940.31;;;29.48;53.61
21728;BME280;11026;50.560;17.852;2022-08-19T08:09:54;98951.31;;;29.27;53.30
21728;BME280;11026;50.560;17.852;2022-08-19T08:12:28;98943.91;;;28.86;54.19
21728;BME280;11026;50.560;17.852;2022-08-19T08:15:06;98956.91;;;28.84;55.03
21728;BME280;11026;50.560;17.852;2022-08-19T08:17:53;98948.97;;;28.89;56.02
21728;BME280;11026;50.560;17.852;2022-08-19T08:20:20;98944.06;;;28.99;55.45
21728;BME280;11026;50.560;17.852;2022-08-19T08:22:49;98942.41;;;29.05;54.51
21728;BME280;11026;50.560;17.852;2022-08-19T08:25:54;98938.22;;;29.09;54.69
21728;BME280;11026;50.560;17.852;2022-08-19T08:28:24;98934.97;;;28.92;53.79
21728;BME280;11026;50.560;17.852;2022-08-19T08:30:57;98936.19;;;28.89;54.67
21728;BME280;11026;50.560;17.852;2022-08-19T08:33:26;98934.72;;;28.87;55.22
21728;BME280;11026;50.560;17.852;2022-08-19T08:36:08;98942.91;;;28.93;53.61
21728;BME280;11026;50.560;17.852;2022-08-19T08:38:37;98934.97;;;28.92;55.21
21728;BME280;11026;50.560;17.852;2022-08-19T08:43:52;98948.06;;;29.03;54.99
21728;BME280;11026;50.560;17.852;2022-08-19T08:46:42;98953.06;;;29.06;53.24
21728;BME280;11026;50.560;17.852;2022-08-19T08:52:15;98937.44;;;29.22;53.06
21728;BME280;11026;50.560;17.852;2022-08-19T08:54:54;98934.38;;;29.38;51.53
21728;BME280;11026;50.560;17.852;2022-08-19T08:57:51;98952.97;;;29.62;52.13
21728;BME280;11026;50.560;17.852;2022-08-19T09:03:12;98944.63;;;29.71;51.43
21728;BME280;11026;50.560;17.852;2022-08-19T09:09:02;98948.00;;;29.93;48.31
21728;BME280;11026;50.560;17.852;2022-08-19T09:17:03;98952.25;;;30.08;48.42
21728;BME280;11026;50.560;17.852;2022-08-19T09:19:30;98962.56;;;30.20;45.66
21728;BME280;11026;50.560;17.852;2022-08-19T09:21:58;98958.78;;;30.21;46.95
21728;BME280;11026;50.560;17.852;2022-08-19T09:24:27;98959.47;;;30.49;45.82
21728;BME280;11026;50.560;17.852;2022-08-19T09:27:07;98964.69;;;30.64;45.24
21728;BME280;11026;50.560;17.852;2022-08-19T09:29:45;98954.59;;;30.98;46.22
21728;BME280;11026;50.560;17.852;2022-08-19T09:32:16;98948.03;;;31.19;43.97
21728;BME280;11026;50.560;17.852;2022-08-19T09:34:52;98950.94;;;31.24;43.16
21728;BME280;11026;50.560;17.852;2022-08-19T09:37:25;98940.94;;;31.04;43.89
21728;BME280;11026;50.560;17.852;2022-08-19T09:39:52;98937.06;;;31.32;44.75
21728;BME280;11026;50.560;17.852;2022-08-19T09:42:23;98922.97;;;31.48;42.93
21728;BME280;11026;50.560;17.852;2022-08-19T09:45:03;98921.06;;;31.49;44.40
21728;BME280;11026;50.560;17.852;2022-08-19T09:47:38;98927.09;;;31.57;42.83
21728;BME280;11026;50.560;17.852;2022-08-19T09:50:33;98914.00;;;31.73;42.15
21728;BME280;11026;50.560;17.852;2022-08-19T09:53:18;98922.09;;;32.24;43.37
21728;BME280;11026;50.560;17.852;2022-08-19T09:55:54;98926.47;;;32.32;43.09
21728;BME280;11026;50.560;17.852;2022-08-19T09:58:24;98935.63;;;32.19;42.48
21728;BME280;11026;50.560;17.852;2022-08-19T10:00:58;98939.78;;;32.22;42.28
21728;BME280;11026;50.560;17.852;2022-08-19T10:03:28;98942.44;;;32.35;41.55
21728;BME280;11026;50.560;17.852;2022-08-19T10:06:05;98930.69;;;32.28;41.82
21728;BME280;11026;50.560;17.852;2022-08-19T10:08:49;98928.94;;;32.40;42.22
21728;BME280;11026;50.560;17.852;2022-08-19T10:11:19;98930.84;;;32.33;42.10
21728;BME280;11026;50.560;17.852;2022-08-19T10:14:19;98930.38;;;32.68;41.93
21728;BME280;11026;50.560;17.852;2022-08-19T10:16:51;98925.41;;;32.58;41.88
21728;BME280;11026;50.560;17.852;2022-08-19T10:19:19;98910.00;;;32.82;42.49
21728;BME280;11026;50.560;17.852;2022-08-19T10:21:53;98913.13;;;32.67;42.52
21728;BME280;11026;50.560;17.852;2022-08-19T10:24:26;98906.59;;;32.87;41.71
21728;BME280;11026;50.560;17.852;2022-08-19T10:27:02;98910.97;;;33.13;39.69
21728;BME280;11026;50.560;17.852;2022-08-19T10:29:41;98900.75;;;33.57;39.49
21728;BME280;11026;50.560;17.852;2022-08-19T10:32:13;98900.88;;;33.62;38.77
21728;BME280;11026;50.560;17.852;2022-08-19T10:34:42;98901.78;;;33.07;39.96
21728;BME280;11026;50.560;17.852;2022-08-19T10:37:18;98901.69;;;33.14;41.15
21728;BME280;11026;50.560;17.852;2022-08-19T10:40:17;98907.94;;;33.21;41.53
21728;BME280;11026;50.560;17.852;2022-08-19T10:42:44;98904.38;;;33.69;39.14
21728;BME280;11026;50.560;17.852;2022-08-19T10:45:13;98903.88;;;33.90;38.93
21728;BME280;11026;50.560;17.852;2022-08-19T10:47:52;98901.47;;;34.47;38.60
21728;BME280;11026;50.560;17.852;2022-08-19T10:50:22;98898.63;;;34.42;37.39
21728;BME280;11026;50.560;17.852;2022-08-19T10:53:13;98897.22;;;34.52;37.76
21728;BME280;11026;50.560;17.852;2022-08-19T10:58:31;98895.75;;;34.96;38.38
21728;BME280;11026;50.560;17.852;2022-08-19T11:01:01;98891.13;;;34.85;37.83
21728;BME280;11026;50.560;17.852;2022-08-19T11:03:29;98889.91;;;35.04;37.30
21728;BME280;11026;50.560;17.852;2022-08-19T11:06:08;98888.56;;;35.30;37.81
21728;BME280;11026;50.560;17.852;2022-08-19T11:08:36;98894.59;;;35.84;36.41
21728;BME280;11026;50.560;17.852;2022-08-19T11:11:07;98887.31;;;36.40;34.42
21728;BME280;11026;50.560;17.852;2022-08-19T11:13:40;98894.75;;;37.34;34.73
21728;BME280;11026;50.560;17.852;2022-08-19T11:16:22;98883.88;;;37.23;32.98
21728;BME280;11026;50.560;17.852;2022-08-19T11:18:54;98887.16;;;36.64;34.69
21728;BME280;11026;50.560;17.852;2022-08-19T11:21:28;98880.81;;;35.56;34.69
21728;BME280;11026;50.560;17.852;2022-08-19T11:24:00;98874.31;;;34.81;35.76
21728;BME280;11026;50.560;17.852;2022-08-19T11:26:29;98881.34;;;34.54;35.68
21728;BME280;11026;50.560;17.852;2022-08-19T11:28:58;98875.03;;;34.65;36.48
21728;BME280;11026;50.560;17.852;2022-08-19T11:31:37;98882.41;;;35.80;35.40
21728;BME280;11026;50.560;17.852;2022-08-19T11:34:09;98890.84;;;35.21;35.71
21728;BME280;11026;50.560;17.852;2022-08-19T11:36:43;98882.19;;;35.53;37.21
21728;BME280;11026;50.560;17.852;2022-08-19T11:39:14;98896.66;;;35.37;35.62
21728;BME280;11026;50.560;17.852;2022-08-19T11:41:51;98899.09;;;35.90;36.32
21728;BME280;11026;50.560;17.852;2022-08-19T11:44:18;98897.34;;;36.47;36.08
21728;BME280;11026;50.560;17.852;2022-08-19T11:47:10;98909.81;;;37.05;34.67
21728;BME280;11026;50.560;17.852;2022-08-19T11:49:38;98903.81;;;36.07;36.18
21728;BME280;11026;50.560;17.852;2022-08-19T11:52:29;98911.09;;;35.44;36.83
21728;BME280;11026;50.560;17.852;2022-08-19T11:54:58;98902.19;;;34.31;37.47
21728;BME280;11026;50.560;17.852;2022-08-19T11:57:28;98906.19;;;33.75;38.41
21728;BME280;11026;50.560;17.852;2022-08-19T12:00:06;98906.19;;;33.26;39.92
21728;BME280;11026;50.560;17.852;2022-08-19T12:02:34;98905.31;;;33.63;39.88
21728;BME280;11026;50.560;17.852;2022-08-19T12:05:16;98895.31;;;34.64;38.86
21728;BME280;11026;50.560;17.852;2022-08-19T12:07:52;98888.63;;;34.83;37.37
21728;BME280;11026;50.560;17.852;2022-08-19T12:10:53;98892.84;;;35.50;36.77
21728;BME280;11026;50.560;17.852;2022-08-19T12:13:28;98882.75;;;35.84;36.82
21728;BME280;11026;50.560;17.852;2022-08-19T12:16:19;98885.16;;;35.80;37.13
21728;BME280;11026;50.560;17.852;2022-08-19T12:18:59;98880.94;;;35.61;38.27
21728;BME280;11026;50.560;17.852;2022-08-19T12:21:34;98883.00;;;35.13;38.17
21728;BME280;11026;50.560;17.852;2022-08-19T12:24:32;98879.31;;;35.77;37.15
21728;BME280;11026;50.560;17.852;2022-08-19T12:27:00;98882.09;;;35.93;37.14
21728;BME280;11026;50.560;17.852;2022-08-19T12:29:40;98877.16;;;35.50;38.06
21728;BME280;11026;50.560;17.852;2022-08-19T12:32:08;98877.47;;;35.25;38.26
21728;BME280;11026;50.560;17.852;2022-08-19T12:34:53;98879.50;;;35.18;37.79
21728;BME280;11026;50.560;17.852;2022-08-19T12:37:34;98878.00;;;35.39;38.25
21728;BME280;11026;50.560;17.852;2022-08-19T12:40:16;98882.75;;;35.43;38.37
21728;BME280;11026;50.560;17.852;2022-08-19T12:43:08;98884.72;;;35.31;37.80
21728;BME280;11026;50.560;17.852;2022-08-19T12:45:49;98889.56;;;35.12;37.88
21728;BME280;11026;50.560;17.852;2022-08-19T12:48:47;98899.16;;;33.97;39.63
21728;BME280;11026;50.560;17.852;2022-08-19T12:54:25;98896.47;;;34.44;39.64
21728;BME280;11026;50.560;17.852;2022-08-19T13:00:13;98891.69;;;34.28;41.15
21728;BME280;11026;50.560;17.852;2022-08-19T13:03:03;98889.41;;;34.37;39.57
21728;BME280;11026;50.560;17.852;2022-08-19T13:05:32;98884.19;;;34.94;39.36
21728;BME280;11026;50.560;17.852;2022-08-19T13:08:08;98879.03;;;35.21;38.57
21728;BME280;11026;50.560;17.852;2022-08-19T13:10:47;98879.16;;;35.14;38.43
21728;BME280;11026;50.560;17.852;2022-08-19T13:13:26;98868.22;;;35.31;37.95
21728;BME280;11026;50.560;17.852;2022-08-19T13:16:04;98883.69;;;35.20;38.88
21728;BME280;11026;50.560;17.852;2022-08-19T13:18:46;98881.16;;;35.19;38.57
21728;BME280;11026;50.560;17.852;2022-08-19T13:21:16;98882.03;;;34.72;38.40
21728;BME280;11026;50.560;17.852;2022-08-19T13:23:52;98872.16;;;34.60;40.30
21728;BME280;11026;50.560;17.852;2022-08-19T13:26:28;98881.56;;;34.52;40.52
21728;BME280;11026;50.560;17.852;2022-08-19T13:28:55;98883.81;;;34.43;40.05
21728;BME280;11026;50.560;17.852;2022-08-19T13:31:42;98876.41;;;34.32;40.72
21728;BME280;11026;50.560;17.852;2022-08-19T13:34:36;98871.75;;;34.44;41.67
21728;BME280;11026;50.560;17.852;2022-08-19T13:37:04;98877.03;;;34.93;41.10
21728;BME280;11026;50.560;17.852;2022-08-19T13:39:35;98867.59;;;35.53;39.67
21728;BME280;11026;50.560;17.852;2022-08-19T13:42:03;98876.56;;;35.77;39.66
21728;BME280;11026;50.560;17.852;2022-08-19T13:44:56;98868.09;;;35.38;39.79
21728;BME280;11026;50.560;17.852;2022-08-19T13:47:25;98875.69;;;35.19;39.15
21728;BME280;11026;50.560;17.852;2022-08-19T13:49:56;98877.16;;;35.10;38.28
21728;BME280;11026;50.560;17.852;2022-08-19T13:52:25;98871.41;;;34.99;39.58
21728;BME280;11026;50.560;17.852;2022-08-19T13:54:52;98871.28;;;35.06;39.08
21728;BME280;11026;50.560;17.852;2022-08-19T13:57:21;98865.69;;;34.78;38.93
21728;BME280;11026;50.560;17.852;2022-08-19T13:59:57;98877.63;;;34.83;40.43
21728;BME280;11026;50.560;17.852;2022-08-19T14:02:25;98865.78;;;34.94;40.33
21728;BME280;11026;50.560;17.852;2022-08-19T14:04:54;98864.16;;;34.70;40.64
21728;BME280;11026;50.560;17.852;2022-08-19T14:07:22;98874.50;;;34.44;40.25
21728;BME280;11026;50.560;17.852;2022-08-19T14:09:50;98872.00;;;34.31;41.81
21728;BME280;11026;50.560;17.852;2022-08-19T14:12:23;98858.78;;;34.52;39.77
21728;BME280;11026;50.560;17.852;2022-08-19T14:14:54;98854.47;;;34.79;40.33
21728;BME280;11026;50.560;17.852;2022-08-19T14:17:26;98861.13;;;34.95;39.33